Time;durP1;ratioP1;P1;durP2;ratioP2;P2;SDS_P1;SDS_P2;PMS_P1;PMS_P2;Temp;Humidity;BMP_temperature;BMP_pressure;BME280_temperature;BME280_humidity;BME280_pressure;Samples;Min_cycle;Max_cycle;Signal;HPM_P1;HPM_P2
2021/09/16 00:01:35;;;;;;;47.33;43.10;;;;;;;13.79;100.00;101777.95;1941287;74;33049;-78
2021/09/16 00:06:59;;;;;;;45.73;41.80;;;;;;;13.81;100.00;101782.70;1941520;74;32979;-78
2021/09/16 00:12:24;;;;;;;45.97;41.90;;;;;;;13.61;100.00;101782.73;1940852;74;33093;-77
2021/09/16 00:17:48;;;;;;;48.03;43.87;;;;;;;13.63;100.00;101783.30;1940850;74;33485;-70
2021/09/16 00:23:12;;;;;;;48.90;44.87;;;;;;;13.67;100.00;101780.22;1942834;74;33091;-77
2021/09/16 00:28:37;;;;;;;45.70;41.93;;;;;;;13.73;100.00;101778.27;1941015;74;33136;-76
2021/09/16 00:34:01;;;;;;;48.13;44.17;;;;;;;13.62;100.00;101777.44;1941041;74;33460;-77
2021/09/16 00:39:26;;;;;;;47.40;43.50;;;;;;;13.30;100.00;101779.73;1940968;74;33031;-69
2021/09/16 00:44:51;;;;;;;46.00;42.10;;;;;;;13.54;100.00;101787.78;1941055;74;33045;-69
2021/09/16 00:50:17;;;;;;;46.40;42.50;;;;;;;13.41;100.00;101799.53;1940880;74;32992;-77
2021/09/16 00:55:47;;;;;;;46.83;43.03;;;;;;;13.35;100.00;101794.50;1941292;74;32998;-78
2021/09/16 01:01:12;;;;;;;47.23;43.27;;;;;;;13.37;100.00;101790.89;1940839;74;33085;-69
2021/09/16 01:06:38;;;;;;;47.10;42.87;;;;;;;13.30;100.00;101788.11;1941092;74;33076;-68
2021/09/16 01:12:03;;;;;;;48.13;44.23;;;;;;;13.08;100.00;101792.00;1940958;74;33541;-69
2021/09/16 01:17:27;;;;;;;43.13;39.87;;;;;;;12.88;100.00;101800.92;1940882;74;33060;-76
2021/09/16 01:23:11;;;;;;;41.80;38.70;;;;;;;12.68;100.00;101795.58;1955455;73;33062;-77
2021/09/16 01:28:36;;;;;;;44.53;41.03;;;;;;;12.79;100.00;101799.23;1941026;74;32983;-70
2021/09/16 01:34:03;;;;;;;45.50;41.73;;;;;;;12.97;100.00;101788.91;1940993;74;33528;-68
2021/09/16 01:39:28;;;;;;;45.17;41.57;;;;;;;12.79;100.00;101793.66;1941286;74;33036;-78
2021/09/16 01:44:53;;;;;;;44.80;41.23;;;;;;;12.61;100.00;101796.42;1940704;74;32975;-68
2021/09/16 01:50:20;;;;;;;42.80;39.40;;;;;;;12.63;100.00;101795.56;1940972;74;33543;-69
2021/09/16 01:55:45;;;;;;;44.33;40.67;;;;;;;12.71;100.00;101799.20;1940821;74;33065;-68
2021/09/16 02:01:09;;;;;;;45.93;42.17;;;;;;;12.73;100.00;101796.98;1941009;74;33101;-69
2021/09/16 02:06:34;;;;;;;45.03;41.43;;;;;;;12.77;100.00;101788.91;1940852;74;33005;-67
2021/09/16 02:11:59;;;;;;;44.50;41.07;;;;;;;12.85;100.00;101799.50;1940998;74;33486;-77
2021/09/16 02:17:24;;;;;;;44.43;40.83;;;;;;;12.76;100.00;101803.39;1941282;74;32985;-78
2021/09/16 02:22:48;;;;;;;47.53;43.30;;;;;;;12.74;100.00;101798.67;1940746;74;33073;-77
2021/09/16 02:28:12;;;;;;;46.00;42.20;;;;;;;12.94;100.00;101799.80;1940831;74;33235;-69
2021/09/16 02:33:37;;;;;;;45.73;42.23;;;;;;;12.61;100.00;101800.59;1940916;74;33112;-68
2021/09/16 02:39:02;;;;;;;42.63;39.43;;;;;;;12.38;100.00;101808.60;1941462;74;33115;-78
2021/09/16 02:44:26;;;;;;;41.43;38.33;;;;;;;12.36;100.00;101806.66;1941074;74;33572;-77
2021/09/16 02:49:50;;;;;;;41.67;38.47;;;;;;;12.41;100.00;101810.28;1940777;74;33099;-77
2021/09/16 02:55:18;;;;;;;43.23;39.97;;;;;;;12.12;100.00;101809.91;1941057;74;33453;-77
2021/09/16 03:00:41;;;;;;;41.83;38.43;;;;;;;11.99;100.00;101815.12;1941007;74;33035;-77
2021/09/16 03:06:05;;;;;;;42.97;39.63;;;;;;;12.20;100.00;101809.92;1940786;74;33069;-69
2021/09/16 03:11:29;;;;;;;44.13;40.43;;;;;;;12.23;100.00;101808.02;1941259;74;33061;-77
2021/09/16 03:16:53;;;;;;;45.83;42.03;;;;;;;12.24;100.00;101806.33;1940992;74;32990;-68
2021/09/16 03:22:18;;;;;;;47.73;43.47;;;;;;;12.30;100.00;101812.21;1941410;74;33026;-78
2021/09/16 03:27:43;;;;;;;46.60;42.50;;;;;;;12.56;100.00;101799.19;1940746;74;32992;-68
2021/09/16 03:33:10;;;;;;;46.63;42.77;;;;;;;12.61;100.00;101805.33;1940758;74;33022;-68
2021/09/16 03:38:34;;;;;;;47.83;43.73;;;;;;;12.51;100.00;101809.48;1941006;74;32972;-69
2021/09/16 03:43:59;;;;;;;45.47;41.63;;;;;;;12.32;100.00;101813.34;1940836;74;33314;-68
2021/09/16 03:49:25;;;;;;;45.83;42.10;;;;;;;12.28;100.00;101813.02;1941014;74;33209;-77
2021/09/16 03:54:49;;;;;;;46.27;42.40;;;;;;;12.35;100.00;101808.61;1940948;74;33510;-77
2021/09/16 04:00:15;;;;;;;49.07;44.63;;;;;;;12.31;100.00;101815.29;1936860;74;39608;-68
2021/09/16 04:05:41;;;;;;;49.57;45.43;;;;;;;12.42;100.00;101811.96;1940787;74;32994;-77
2021/09/16 04:11:05;;;;;;;46.13;42.40;;;;;;;12.41;100.00;101805.29;1940812;74;32981;-77
2021/09/16 04:16:30;;;;;;;42.40;39.03;;;;;;;12.02;100.00;101811.83;1940797;74;33085;-77
2021/09/16 04:21:54;;;;;;;39.47;36.53;;;;;;;11.44;100.00;101813.67;1940758;74;32992;-77
2021/09/16 04:27:18;;;;;;;41.10;37.90;;;;;;;11.74;100.00;101815.84;1940974;74;32983;-77
2021/09/16 04:32:43;;;;;;;38.47;35.87;;;;;;;11.88;100.00;101811.48;1940839;74;32968;-77
2021/09/16 04:38:07;;;;;;;44.57;41.00;;;;;;;11.97;100.00;101811.80;1941241;74;33029;-78
2021/09/16 04:43:32;;;;;;;42.37;39.20;;;;;;;12.04;100.00;101809.04;1940902;74;32984;-69
2021/09/16 04:48:56;;;;;;;44.07;40.57;;;;;;;12.01;100.00;101815.71;1940852;74;33098;-75
2021/09/16 04:54:21;;;;;;;44.17;40.37;;;;;;;12.03;100.00;101810.69;1941000;74;32998;-77
2021/09/16 04:59:45;;;;;;;44.03;40.43;;;;;;;12.27;100.00;101811.92;1940826;74;32984;-77
2021/09/16 05:05:11;;;;;;;49.40;45.50;;;;;;;12.22;100.00;101822.49;1940827;74;32990;-77
2021/09/16 05:10:36;;;;;;;50.80;47.20;;;;;;;12.02;100.00;101822.97;1940828;74;33463;-77
2021/09/16 05:16:04;;;;;;;52.53;48.47;;;;;;;12.13;100.00;101814.92;1941087;74;33475;-77
2021/09/16 05:21:28;;;;;;;52.10;48.27;;;;;;;12.14;100.00;101815.22;1940808;74;32990;-69
2021/09/16 05:26:53;;;;;;;52.23;47.93;;;;;;;12.20;100.00;101819.68;1940862;74;33040;-68
2021/09/16 05:32:18;;;;;;;52.23;48.10;;;;;;;12.29;100.00;101819.44;1941105;74;33483;-69
2021/09/16 05:37:43;;;;;;;52.70;48.50;;;;;;;12.07;100.00;101811.82;1940870;74;33575;-78
2021/09/16 05:43:12;;;;;;;52.83;48.67;;;;;;;12.17;100.00;101811.88;1940787;74;32967;-77
2021/09/16 05:48:37;;;;;;;53.20;49.30;;;;;;;12.22;100.00;101822.49;1940825;74;33078;-69
2021/09/16 05:54:01;;;;;;;50.37;46.67;;;;;;;12.27;100.00;101826.70;1940883;74;33024;-68
2021/09/16 05:59:26;;;;;;;51.23;47.43;;;;;;;12.15;100.00;101836.40;1941013;74;32964;-77
2021/09/16 06:04:51;;;;;;;52.70;49.10;;;;;;;12.09;100.00;101843.87;1940762;74;33034;-77
2021/09/16 06:10:15;;;;;;;51.30;47.70;;;;;;;12.02;100.00;101855.83;1940800;74;33048;-76
2021/09/16 06:15:39;;;;;;;51.57;47.90;;;;;;;12.21;100.00;101863.14;1941010;74;33466;-77
2021/09/16 06:21:04;;;;;;;52.37;48.37;;;;;;;12.14;100.00;101869.53;1940953;74;33514;-77
2021/09/16 06:26:29;;;;;;;52.80;48.67;;;;;;;12.21;100.00;101878.47;1940949;74;33475;-69
2021/09/16 06:31:53;;;;;;;54.20;50.23;;;;;;;12.51;100.00;101881.39;1940799;74;32964;-69
2021/09/16 06:37:17;;;;;;;51.77;47.83;;;;;;;12.45;100.00;101886.64;1941148;74;33559;-69
2021/09/16 06:42:42;;;;;;;54.33;50.13;;;;;;;12.37;100.00;101888.56;1940785;74;33048;-69
2021/09/16 06:48:08;;;;;;;57.60;52.77;;;;;;;12.53;100.00;101881.97;1940856;74;32966;-76
2021/09/16 06:53:33;;;;;;;54.97;50.60;;;;;;;12.66;100.00;101888.97;1941235;74;32968;-79
2021/09/16 06:58:58;;;;;;;54.23;49.47;;;;;;;12.61;100.00;101891.19;1940823;74;32969;-75
2021/09/16 07:04:22;;;;;;;55.13;50.73;;;;;;;12.75;100.00;101892.33;1941021;74;33512;-69
2021/09/16 07:09:46;;;;;;;51.13;47.10;;;;;;;12.87;100.00;101896.28;1940968;74;33064;-69
2021/09/16 07:15:12;;;;;;;54.07;49.47;;;;;;;12.92;100.00;101898.25;1940821;74;33031;-69
2021/09/16 07:20:36;;;;;;;55.60;50.30;;;;;;;13.14;100.00;101910.86;1941017;74;33437;-75
2021/09/16 07:26:00;;;;;;;56.87;51.57;;;;;;;13.65;100.00;101908.92;1940956;74;33128;-72
2021/09/16 07:31:25;;;;;;;58.67;53.23;;;;;;;13.85;100.00;101907.25;1941033;74;33551;-68
2021/09/16 07:36:51;;;;;;;60.73;54.33;;;;;;;14.31;100.00;101902.38;1941059;74;33574;-68
2021/09/16 07:42:23;;;;;;;62.57;56.43;;;;;;;14.48;100.00;101898.72;1940915;74;32956;-70
2021/09/16 07:47:47;;;;;;;58.90;53.37;;;;;;;14.65;100.00;101906.75;1940818;74;33092;-71
2021/09/16 07:53:12;;;;;;;57.20;51.53;;;;;;;15.02;100.00;101898.70;1941048;74;33480;-78
2021/09/16 07:58:37;;;;;;;56.10;51.00;;;;;;;14.78;100.00;101894.94;1941097;74;33456;-77
2021/09/16 08:04:01;;;;;;;55.60;50.43;;;;;;;14.86;100.00;101899.92;1940903;74;32961;-79
2021/09/16 08:09:25;;;;;;;56.17;51.33;;;;;;;15.31;100.00;101903.00;1940997;74;33036;-78
2021/09/16 08:14:50;;;;;;;55.60;50.80;;;;;;;15.79;100.00;101897.84;1940889;74;33031;-78
2021/09/16 08:20:16;;;;;;;54.20;49.27;;;;;;;15.57;100.00;101895.27;1940816;74;33145;-70
2021/09/16 08:25:43;;;;;;;55.03;49.93;;;;;;;16.06;100.00;101887.48;1940899;74;31040;-78
2021/09/16 08:31:14;;;;;;;51.67;47.17;;;;;;;16.40;100.00;101888.77;1940901;74;33056;-79
2021/09/16 08:36:39;;;;;;;51.80;47.33;;;;;;;16.87;100.00;101891.27;1940977;74;31106;-70
2021/09/16 08:42:05;;;;;;;49.50;45.30;;;;;;;17.06;100.00;101880.33;1940829;74;33075;-71
2021/09/16 08:47:36;;;;;;;51.80;47.43;;;;;;;17.17;100.00;101884.64;1941067;74;33460;-74
2021/09/16 08:53:02;;;;;;;53.57;49.20;;;;;;;17.19;100.00;101882.38;1940883;74;33029;-69
2021/09/16 08:58:30;;;;;;;51.03;46.87;;;;;;;17.21;100.00;101889.91;1941010;74;31550;-80
2021/09/16 09:03:54;;;;;;;49.43;45.53;;;;;;;17.49;100.00;101883.02;1941006;74;33644;-78
2021/09/16 09:09:24;;;;;;;50.07;46.17;;;;;;;17.73;100.00;101893.00;1941097;74;31517;-70
2021/09/16 09:14:55;;;;;;;50.70;46.50;;;;;;;18.06;100.00;101892.95;1941120;74;31202;-78
2021/09/16 09:20:21;;;;;;;50.97;46.97;;;;;;;18.24;100.00;101888.39;1941012;74;31483;-78
2021/09/16 09:25:44;;;;;;;52.70;48.60;;;;;;;18.33;100.00;101888.77;1941078;74;31569;-78
2021/09/16 09:31:22;;;;;;;58.83;54.63;;;;;;;18.43;100.00;101885.77;1941056;74;31095;-71
2021/09/16 09:36:46;;;;;;;60.47;56.03;;;;;;;18.71;100.00;101873.08;1940988;74;31115;-71
2021/09/16 09:42:33;;;;;;;55.23;51.23;;;;;;;18.86;100.00;101872.19;1997169;71;31488;-79
2021/09/16 09:48:21;;;;;;;53.37;49.37;;;;;;;19.14;100.00;101864.48;2013069;71;30941;-79
2021/09/16 09:54:22;;;;;;;49.50;45.80;;;;;;;18.99;100.00;101864.28;2002602;71;31296;-71
2021/09/16 10:00:26;;;;;;;50.17;46.57;;;;;;;18.99;100.00;101864.86;2011010;71;30914;-76
2021/09/16 10:05:51;;;;;;;50.47;46.77;;;;;;;18.88;100.00;101866.22;1940844;74;31052;-79
2021/09/16 10:11:18;;;;;;;49.83;46.20;;;;;;;18.90;100.00;101876.61;1941071;74;31542;-71
2021/09/16 10:16:46;;;;;;;50.67;46.77;;;;;;;19.18;100.00;101859.03;1941095;74;33525;-71
2021/09/16 10:22:11;;;;;;;52.90;49.00;;;;;;;19.01;100.00;101859.72;1940843;74;31055;-71
2021/09/16 10:27:41;;;;;;;52.17;48.37;;;;;;;19.13;100.00;101845.91;1940900;74;31027;-71
2021/09/16 10:33:31;;;;;;;51.70;48.00;;;;;;;18.89;100.00;101853.81;1940835;74;31045;-71
2021/09/16 10:39:06;;;;;;;51.80;47.90;;;;;;;18.88;100.00;101854.39;1940957;74;31050;-71
2021/09/16 10:44:34;;;;;;;50.00;46.43;;;;;;;18.96;100.00;101849.98;1940849;74;33083;-79
2021/09/16 10:50:22;;;;;;;51.17;47.47;;;;;;;19.08;100.00;101850.28;1941060;74;33458;-79
2021/09/16 10:55:51;;;;;;;49.30;45.70;;;;;;;19.11;100.00;101848.23;1940921;74;33496;-71
2021/09/16 11:02:06;;;;;;;44.57;41.47;;;;;;;19.30;100.00;101849.43;1940937;74;31066;-70
2021/09/16 11:08:01;;;;;;;45.67;42.47;;;;;;;19.24;100.00;101844.52;1941019;74;31587;-78
2021/09/16 11:13:53;;;;;;;43.60;40.70;;;;;;;19.42;100.00;101840.69;1941006;74;33553;-80
2021/09/16 11:19:27;;;;;;;42.17;39.40;;;;;;;19.53;100.00;101845.50;1940811;74;31037;-69
2021/09/16 11:25:22;;;;;;;39.90;37.50;;;;;;;19.58;100.00;101842.56;2009675;71;30945;-70
2021/09/16 11:30:49;;;;;;;39.67;37.27;;;;;;;19.60;100.00;101841.64;1941034;74;31025;-78
2021/09/16 11:36:16;;;;;;;37.80;35.50;;;;;;;19.75;100.00;101834.20;1941172;74;31000;-79
2021/09/16 11:41:41;;;;;;;36.45;34.35;;;;;;;19.95;100.00;101822.35;1924850;74;28157;-70
2021/09/16 11:47:06;;;;;;;35.50;33.40;;;;;;;19.99;100.00;101819.13;1940823;74;31242;-70
2021/09/16 11:52:31;;;;;;;35.03;33.03;;;;;;;20.07;100.00;101810.45;1940785;74;31017;-72
2021/09/16 11:58:09;;;;;;;36.03;34.13;;;;;;;19.94;100.00;101812.22;1941077;74;31665;-80
2021/09/16 12:03:38;;;;;;;35.80;33.83;;;;;;;20.12;100.00;101805.23;1941030;74;31043;-79
2021/09/16 12:09:05;;;;;;;34.27;32.27;;;;;;;20.32;100.00;101799.85;1941013;74;31500;-80
2021/09/16 12:14:37;;;;;;;34.10;32.20;;;;;;;20.48;100.00;101804.48;1941088;74;31563;-71
2021/09/16 12:20:01;;;;;;;34.33;32.37;;;;;;;20.39;100.00;101800.22;1940813;74;31122;-71
2021/09/16 12:25:26;;;;;;;32.60;30.80;;;;;;;20.48;100.00;101798.00;1940890;74;31016;-70
2021/09/16 12:31:08;;;;;;;33.87;32.07;;;;;;;20.62;100.00;101785.99;1941061;74;31079;-80
2021/09/16 12:36:36;;;;;;;33.07;31.23;;;;;;;20.67;100.00;101789.47;1940979;74;31566;-80
2021/09/16 12:42:08;;;;;;;33.83;32.03;;;;;;;20.74;100.00;101781.34;1941091;74;31012;-80
2021/09/16 12:47:32;;;;;;;32.43;30.63;;;;;;;20.74;100.00;101778.53;1941051;74;31021;-70
2021/09/16 12:53:02;;;;;;;41.97;39.87;;;;;;;20.72;100.00;101777.17;1940837;74;31106;-70
2021/09/16 12:58:30;;;;;;;34.03;32.13;;;;;;;20.69;100.00;101773.03;1941064;74;31679;-70
2021/09/16 13:04:05;;;;;;;32.50;30.80;;;;;;;20.85;100.00;101771.38;1941158;74;31028;-80
2021/09/16 13:09:34;;;;;;;29.10;27.50;;;;;;;20.97;100.00;101762.80;1941059;74;31610;-80
2021/09/16 13:15:11;;;;;;;30.67;28.97;;;;;;;21.12;100.00;101758.06;1941202;74;31508;-80
2021/09/16 13:20:38;;;;;;;30.43;28.83;;;;;;;21.04;100.00;101745.62;1940833;74;31011;-70
2021/09/16 13:26:04;;;;;;;29.47;27.97;;;;;;;21.05;100.00;101745.05;1941093;74;31573;-81
2021/09/16 13:31:28;;;;;;;26.68;25.30;;;;;;;20.98;100.00;101738.47;1940841;74;31091;-71
2021/09/16 13:36:53;;;;;;;30.23;28.73;;;;;;;21.10;100.00;101727.31;1941063;74;31014;-80
2021/09/16 13:42:18;;;;;;;30.77;29.15;;;;;;;21.03;100.00;101720.52;1940832;74;31026;-80
2021/09/16 13:47:44;;;;;;;30.85;29.25;;;;;;;21.01;100.00;101722.86;1940848;74;31084;-71
2021/09/16 13:53:10;;;;;;;27.80;26.40;;;;;;;21.01;100.00;101715.19;1941000;74;31488;-79
2021/09/16 13:58:35;;;;;;;29.17;27.77;;;;;;;21.15;100.00;101706.56;1941106;74;31548;-79
2021/09/16 14:04:00;;;;;;;29.93;28.43;;;;;;;21.12;100.00;101712.86;1941072;74;31618;-71
2021/09/16 14:09:24;;;;;;;29.90;28.37;;;;;;;21.00;100.00;101712.14;1940888;74;31078;-71
2021/09/16 14:14:50;;;;;;;31.15;29.50;;;;;;;21.06;100.00;101705.71;1977538;72;31009;-71
2021/09/16 14:20:15;;;;;;;31.23;29.70;;;;;;;21.22;100.00;101702.05;1941076;74;31021;-76
2021/09/16 14:25:39;;;;;;;29.57;28.07;;;;;;;21.25;100.00;101700.56;1940934;74;31053;-77
2021/09/16 14:31:04;;;;;;;31.25;29.65;;;;;;;21.22;100.00;101692.77;1941106;74;31495;-77
2021/09/16 14:36:29;;;;;;;31.13;29.53;;;;;;;21.24;100.00;101691.83;1941155;74;31470;-76
2021/09/16 14:41:53;;;;;;;28.07;26.48;;;;;;;21.29;100.00;101688.25;1941093;74;31046;-68
2021/09/16 14:47:18;;;;;;;27.50;26.10;;;;;;;21.34;100.00;101683.00;1941048;74;31156;-68
2021/09/16 14:52:42;;;;;;;26.30;25.10;;;;;;;21.42;100.00;101674.23;1941205;74;31192;-78
2021/09/16 14:58:08;;;;;;;28.85;27.35;;;;;;;21.47;100.00;101674.88;1941237;74;31549;-78
2021/09/16 15:03:33;;;;;;;27.22;25.80;;;;;;;21.44;100.00;101664.23;1941077;74;31084;-71
2021/09/16 15:08:57;;;;;;;29.18;27.30;;;;;;;21.52;100.00;101663.97;1940968;74;31099;-67
2021/09/16 15:14:22;;;;;;;27.10;25.63;;;;;;;21.53;100.00;101658.54;1940975;74;31086;-68
2021/09/16 15:19:46;;;;;;;25.32;24.12;;;;;;;21.56;100.00;101655.89;1941128;74;31523;-79
2021/09/16 15:25:12;;;;;;;26.68;25.37;;;;;;;21.58;100.00;101652.12;1941179;74;31605;-77
2021/09/16 15:30:37;;;;;;;26.95;25.57;;;;;;;21.59;100.00;101658.61;1941020;74;31356;-77
2021/09/16 15:36:03;;;;;;;27.52;26.07;;;;;;;21.49;100.00;101648.50;1940986;74;31031;-70
2021/09/16 15:41:28;;;;;;;27.10;25.73;;;;;;;21.65;100.00;101648.16;1940964;74;31039;-79
2021/09/16 15:46:53;;;;;;;26.42;25.15;;;;;;;21.66;100.00;101641.92;1940990;74;31080;-79
2021/09/16 15:52:17;;;;;;;30.80;28.83;;;;;;;21.52;100.00;101643.57;1940838;74;31128;-80
2021/09/16 15:57:42;;;;;;;28.42;26.73;;;;;;;21.56;100.00;101641.75;1941028;74;31488;-70
2021/09/16 16:03:08;;;;;;;26.25;24.85;;;;;;;21.63;100.00;101639.21;1941028;74;31601;-70
2021/09/16 16:08:32;;;;;;;26.90;25.60;;;;;;;21.70;100.00;101631.02;1940980;74;31550;-70
2021/09/16 16:13:57;;;;;;;27.67;26.12;;;;;;;21.73;100.00;101636.59;1940786;74;31111;-77
2021/09/16 16:19:22;;;;;;;29.83;27.73;;;;;;;21.67;100.00;101636.52;1940723;74;31096;-70
2021/09/16 16:24:46;;;;;;;27.82;26.33;;;;;;;21.67;100.00;101643.59;1940851;74;31108;-77
2021/09/16 16:30:14;;;;;;;28.70;27.10;;;;;;;21.63;100.00;101632.72;1940834;74;31072;-78
2021/09/16 16:35:40;;;;;;;27.93;26.53;;;;;;;21.61;100.00;101637.88;1940842;74;31089;-78
2021/09/16 16:41:05;;;;;;;26.80;25.50;;;;;;;21.54;100.00;101644.08;1940736;74;31143;-69
2021/09/16 16:46:30;;;;;;;27.32;26.02;;;;;;;21.36;100.00;101619.87;1940873;74;31018;-69
2021/09/16 16:51:54;;;;;;;28.90;27.35;;;;;;;21.44;100.00;101642.20;1940773;74;31105;-70
2021/09/16 16:57:19;;;;;;;29.57;27.90;;;;;;;21.25;100.00;101636.39;1940760;74;31012;-78
2021/09/16 17:02:43;;;;;;;30.17;28.67;;;;;;;21.16;100.00;101641.25;1940952;74;31596;-78
2021/09/16 17:08:08;;;;;;;31.37;29.65;;;;;;;21.04;100.00;101658.62;1977423;72;31033;-77
2021/09/16 17:13:33;;;;;;;31.62;29.92;;;;;;;20.94;100.00;101644.84;1940887;74;31519;-70
2021/09/16 17:18:57;;;;;;;31.68;30.05;;;;;;;20.81;100.00;101642.46;1940781;74;31120;-77
2021/09/16 17:24:22;;;;;;;38.08;35.68;;;;;;;20.67;100.00;101640.40;1940797;74;31013;-77
2021/09/16 17:29:46;;;;;;;43.77;40.80;;;;;;;20.45;100.00;101644.27;1940976;74;31053;-71
2021/09/16 17:35:14;;;;;;;44.90;41.98;;;;;;;20.33;100.00;101643.50;1941375;74;31051;-84
2021/09/16 17:40:42;;;;;;;44.60;42.00;;;;;;;20.15;100.00;101639.58;1940781;74;31049;-70
2021/09/16 17:46:08;;;;;;;44.20;41.60;;;;;;;20.13;100.00;101653.17;1940797;74;31104;-70
2021/09/16 17:51:33;;;;;;;43.80;41.20;;;;;;;20.08;100.00;101649.09;1940934;74;31498;-68
2021/09/16 17:56:57;;;;;;;42.97;40.37;;;;;;;20.13;100.00;101646.95;1941005;74;31042;-77
2021/09/16 18:02:22;;;;;;;43.43;40.83;;;;;;;20.08;100.00;101650.50;1940968;74;31039;-77
2021/09/16 18:07:50;;;;;;;42.70;40.20;;;;;;;20.31;100.00;101655.72;1940796;74;31058;-68
2021/09/16 18:13:16;;;;;;;42.77;40.07;;;;;;;20.04;100.00;101657.96;1940819;74;31154;-77
2021/09/16 18:18:40;;;;;;;44.10;41.42;;;;;;;19.71;100.00;101657.56;1940794;74;31046;-68
2021/09/16 18:24:05;;;;;;;43.27;40.63;;;;;;;19.75;100.00;101655.17;1941116;74;31207;-68
2021/09/16 18:29:29;;;;;;;39.90;37.50;;;;;;;19.77;100.00;101648.61;1940891;74;31051;-77
2021/09/16 18:34:54;;;;;;;39.87;37.37;;;;;;;19.72;100.00;101663.46;1940826;74;31041;-69
2021/09/16 18:40:18;;;;;;;41.23;38.83;;;;;;;19.66;100.00;101665.59;1940709;74;31099;-74
2021/09/16 18:45:43;;;;;;;42.77;40.17;;;;;;;19.54;100.00;101669.05;1940948;74;31033;-68
2021/09/16 18:51:07;;;;;;;43.70;41.00;;;;;;;19.47;100.00;101671.48;1940744;74;31119;-74
2021/09/16 18:56:31;;;;;;;46.50;43.40;;;;;;;19.40;100.00;101673.91;1940697;74;31129;-73
2021/09/16 19:01:55;;;;;;;47.30;44.27;;;;;;;19.35;100.00;101683.91;1940697;74;31116;-69
2021/09/16 19:07:20;;;;;;;47.27;44.17;;;;;;;19.25;100.00;101688.44;1940784;74;31042;-77
2021/09/16 19:12:45;;;;;;;48.80;45.50;;;;;;;19.07;100.00;101697.36;1940945;74;31650;-69
2021/09/16 19:18:10;;;;;;;49.13;45.83;;;;;;;19.03;100.00;101701.97;1940943;74;33513;-67
2021/09/16 19:23:34;;;;;;;51.00;47.60;;;;;;;18.97;100.00;101703.25;1940770;74;31046;-66
2021/09/16 19:28:59;;;;;;;49.80;46.43;;;;;;;18.95;100.00;101704.16;1940865;74;31562;-75
2021/09/16 19:34:26;;;;;;;50.97;47.50;;;;;;;18.82;100.00;101711.27;1972178;72;30979;-69
2021/09/16 19:39:52;;;;;;;51.67;48.07;;;;;;;18.81;100.00;101720.84;1940852;74;31146;-69
2021/09/16 19:45:17;;;;;;;50.97;47.30;;;;;;;18.65;100.00;101724.63;1940995;74;31543;-68
2021/09/16 19:50:44;;;;;;;52.07;48.47;;;;;;;18.58;100.00;101729.84;1941048;74;31550;-68
2021/09/16 19:56:09;;;;;;;52.17;48.50;;;;;;;18.54;100.00;101733.03;1940747;74;31039;-76
2021/09/16 20:01:34;;;;;;;50.47;46.90;;;;;;;18.57;100.00;101738.86;1940990;74;31122;-79
2021/09/16 20:07:00;;;;;;;49.73;46.33;;;;;;;18.43;100.00;101745.09;1940852;74;31108;-79
2021/09/16 20:12:26;;;;;;;48.87;45.37;;;;;;;18.35;100.00;101754.84;1940867;74;31046;-76
2021/09/16 20:17:50;;;;;;;50.00;46.63;;;;;;;18.28;100.00;101753.86;1940807;74;31054;-68
2021/09/16 20:23:15;;;;;;;48.20;44.80;;;;;;;18.19;100.00;101755.17;1942872;74;31170;-73
2021/09/16 20:25:47;;;;;;;48.27;44.87;;;;;;;18.17;100.00;101768.73;1906580;75;24711;-73
2021/09/16 20:31:13;;;;;;;50.50;46.93;;;;;;;18.09;100.00;101761.60;1940882;74;33450;-68
2021/09/16 20:36:38;;;;;;;48.63;45.43;;;;;;;17.95;100.00;101757.95;1940954;74;31040;-73
2021/09/16 20:42:08;;;;;;;48.00;44.70;;;;;;;17.94;100.00;101761.33;1940995;74;31097;-78
2021/09/16 20:47:29;;;;;;;48.57;45.40;;;;;;;17.86;100.00;101767.69;1941001;74;31113;-74
2021/09/16 20:52:54;;;;;;;48.50;45.30;;;;;;;17.61;100.00;101749.36;1940843;74;33130;-75
2021/09/16 20:58:19;;;;;;;47.83;44.53;;;;;;;17.63;100.00;101772.91;1940718;74;31046;-67
2021/09/16 21:03:43;;;;;;;47.73;44.47;;;;;;;17.58;100.00;101771.06;1940786;74;31196;-76
2021/09/16 21:09:10;;;;;;;47.27;44.17;;;;;;;17.52;100.00;101772.26;1940815;74;33498;-66
2021/09/16 21:14:40;;;;;;;49.73;46.23;;;;;;;17.43;100.00;101768.48;1940929;74;31142;-79
2021/09/16 21:20:06;;;;;;;48.20;45.00;;;;;;;17.37;100.00;101775.92;1940759;74;31122;-76
2021/09/16 21:25:31;;;;;;;48.33;45.03;;;;;;;17.22;100.00;101778.42;1940738;74;31050;-68
2021/09/16 21:30:56;;;;;;;49.13;45.87;;;;;;;17.13;100.00;101769.87;1940772;74;31113;-78
2021/09/16 21:36:20;;;;;;;49.83;46.43;;;;;;;17.10;100.00;101770.49;1940701;74;31049;-68
2021/09/16 21:41:45;;;;;;;49.03;45.73;;;;;;;17.10;100.00;101765.44;1940882;74;31044;-69
2021/09/16 21:47:09;;;;;;;48.43;45.03;;;;;;;16.90;100.00;101765.19;1940960;74;31053;-77
2021/09/16 21:52:34;;;;;;;49.87;46.47;;;;;;;16.78;100.00;101772.69;1940900;74;31598;-77
2021/09/16 21:57:58;;;;;;;48.77;45.53;;;;;;;16.68;100.00;101770.05;1940751;74;31097;-77
2021/09/16 22:03:24;;;;;;;50.73;47.27;;;;;;;16.65;100.00;101769.80;1941003;74;31535;-69
2021/09/16 22:08:48;;;;;;;48.13;44.67;;;;;;;16.66;100.00;101773.72;1941230;74;31626;-80
2021/09/16 22:14:15;;;;;;;50.40;46.73;;;;;;;16.48;100.00;101774.52;1940809;74;31042;-69
2021/09/16 22:19:39;;;;;;;47.70;44.50;;;;;;;16.51;100.00;101773.09;1940847;74;33467;-78
2021/09/16 22:25:06;;;;;;;48.23;44.83;;;;;;;16.30;100.00;101773.95;1941021;74;31048;-68
2021/09/16 22:30:31;;;;;;;48.30;44.90;;;;;;;16.43;100.00;101771.77;1941160;74;31070;-77
2021/09/16 22:35:56;;;;;;;48.37;45.07;;;;;;;15.86;100.00;101781.23;1941126;74;33515;-77
2021/09/16 22:41:21;;;;;;;49.03;45.63;;;;;;;15.67;100.00;101783.95;1941209;74;31068;-79
2021/09/16 22:46:45;;;;;;;48.57;45.07;;;;;;;15.53;100.00;101784.97;1941067;74;33621;-69
2021/09/16 22:52:10;;;;;;;48.40;44.80;;;;;;;15.41;100.00;101786.14;1941141;74;32982;-68
2021/09/16 22:57:35;;;;;;;50.93;47.33;;;;;;;15.26;100.00;101789.10;1941016;74;33038;-76
2021/09/16 23:03:02;;;;;;;48.13;44.83;;;;;;;14.93;100.00;101789.36;1940895;74;33033;-77
2021/09/16 23:08:27;;;;;;;48.70;45.40;;;;;;;14.94;100.00;101790.20;1940902;74;32981;-77
2021/09/16 23:14:11;;;;;;;48.53;45.10;;;;;;;15.11;100.00;101785.58;2009825;71;32820;-68
2021/09/16 23:19:37;;;;;;;47.40;43.77;;;;;;;15.21;100.00;101777.11;1940956;74;32974;-77
2021/09/16 23:25:03;;;;;;;47.07;43.47;;;;;;;15.30;100.00;101777.58;1940857;74;33000;-68
2021/09/16 23:30:47;;;;;;;46.83;43.47;;;;;;;15.47;100.00;101768.73;2009690;71;32840;-78
2021/09/16 23:36:12;;;;;;;45.43;41.93;;;;;;;14.91;100.00;101766.45;1940867;74;33116;-69
2021/09/16 23:41:56;;;;;;;47.00;43.43;;;;;;;14.86;100.00;101761.45;2009595;71;32821;-78
2021/09/16 23:47:21;;;;;;;47.07;43.60;;;;;;;14.80;100.00;101755.64;1940836;74;33121;-68
2021/09/16 23:52:45;;;;;;;45.27;41.93;;;;;;;14.68;100.00;101755.14;1940984;74;33063;-77
2021/09/16 23:58:10;;;;;;;46.70;43.17;;;;;;;14.45;100.00;101760.35;1941078;74;33095;-68
